Time;durP1;ratioP1;P1;durP2;ratioP2;P2;SDS_P1;SDS_P2;PMS_P1;PMS_P2;Temp;Humidity;BMP_temperature;BMP_pressure;BME280_temperature;BME280_humidity;BME280_pressure;Samples;Min_cycle;Max_cycle;Signal;HPM_P1;HPM_P2
2021/10/15 00:01:47;;;;;;;11.13;4.53;;;13.70;94.30;;;11.80;96.83;100745.31;5070733;28;20110;-88
2021/10/15 00:04:14;;;;;;;7.65;3.85;;;13.60;94.20;;;11.80;96.37;100731.69;5070650;28;20475;-88
2021/10/15 00:06:42;;;;;;;12.95;4.05;;;13.70;93.80;;;11.81;95.79;100735.28;5076116;28;20095;-88
2021/10/15 00:09:09;;;;;;;12.80;3.80;;;13.70;94.50;;;11.81;95.96;100732.56;5090552;28;20048;-88
2021/10/15 00:11:36;;;;;;;11.05;4.00;;;13.70;93.90;;;11.82;95.69;100728.78;5090555;28;20120;-88
2021/10/15 00:14:04;;;;;;;9.73;3.90;;;13.70;94.20;;;11.83;94.89;100725.03;5090735;28;20044;-88
2021/10/15 00:16:32;;;;;;;11.82;3.75;;;13.70;94.50;;;11.77;94.95;100726.63;5090724;28;20109;-88
2021/10/15 00:19:00;;;;;;;8.27;3.35;;;13.70;94.20;;;11.72;95.93;100731.78;5090446;28;20143;-87
2021/10/15 00:21:27;;;;;;;11.77;3.63;;;13.70;94.20;;;11.71;95.76;100722.78;5072286;28;20052;-88
2021/10/15 00:23:54;;;;;;;11.05;3.42;;;13.70;94.20;;;11.69;95.32;100719.38;5090509;28;20046;-88
2021/10/15 00:26:22;;;;;;;9.48;3.47;;;13.70;94.10;;;11.73;95.25;100725.31;5090397;28;20396;-89
2021/10/15 00:28:49;;;;;;;9.30;3.67;;;13.70;93.80;;;11.72;95.03;100718.16;5090206;28;20067;-88
2021/10/15 00:31:16;;;;;;;10.30;3.40;;;13.60;93.30;;;11.71;93.82;100711.84;5071602;28;20072;-88
2021/10/15 00:33:45;;;;;;;9.27;3.28;;;13.60;92.20;;;11.71;93.02;100711.84;5072040;28;20113;-89
2021/10/15 00:36:12;;;;;;;9.25;3.60;;;13.50;92.60;;;11.63;93.27;100709.22;5071895;28;20750;-88
2021/10/15 00:38:40;;;;;;;9.23;4.00;;;13.50;93.00;;;11.54;93.90;100704.91;5071395;28;20040;-87
2021/10/15 00:41:08;;;;;;;12.48;4.00;;;13.50;93.00;;;11.54;94.37;100704.91;5071889;28;20150;-88
2021/10/15 00:43:35;;;;;;;9.02;3.65;;;13.50;93.00;;;11.54;94.23;100702.16;5090149;28;20052;-89
2021/10/15 00:46:02;;;;;;;10.20;3.50;;;13.50;93.10;;;11.55;93.77;100698.41;5090069;28;20105;-88
2021/10/15 00:48:30;;;;;;;10.90;4.00;;;13.50;92.60;;;11.51;93.91;100692.47;5089688;28;20537;-87
2021/10/15 00:51:00;;;;;;;9.13;3.60;;;13.50;93.00;;;11.50;93.49;100687.22;5090078;28;20044;-89
2021/10/15 00:53:28;;;;;;;8.85;3.60;;;13.50;92.60;;;11.47;93.49;100682.13;5089926;28;20121;-89
2021/10/15 00:55:57;;;;;;;7.97;3.20;;;13.50;92.80;;;11.43;94.08;100676.22;5056646;28;20055;-88
2021/10/15 00:58:24;;;;;;;9.88;3.35;;;13.50;93.00;;;11.37;94.59;100679.69;5069440;28;20043;-88
2021/10/15 01:00:51;;;;;;;13.35;3.92;;;13.50;92.90;;;11.39;94.19;100677.63;5069610;28;20040;-88
2021/10/15 01:03:19;;;;;;;11.13;3.20;;;13.50;92.90;;;11.37;94.75;100681.56;5051470;28;20041;-88
2021/10/15 01:05:46;;;;;;;13.90;3.58;;;13.50;92.70;;;11.34;94.14;100667.25;5056325;28;20086;-89
2021/10/15 01:08:15;;;;;;;10.75;4.40;;;13.50;92.80;;;11.32;94.41;100672.06;5085750;28;20105;-88
2021/10/15 01:10:42;;;;;;;10.02;3.45;;;13.50;92.70;;;11.28;94.91;100672.63;5071286;28;20040;-88
2021/10/15 01:13:10;;;;;;;9.50;3.42;;;13.40;92.50;;;11.32;93.73;100673.94;5089623;28;20052;-88
2021/10/15 01:15:37;;;;;;;11.10;3.83;;;13.40;92.10;;;11.39;93.23;100668.59;5071060;28;20093;-89
2021/10/15 01:18:11;;;;;;;10.23;3.50;;;13.40;92.00;;;11.35;93.90;100660.78;5070641;28;20048;-88
2021/10/15 01:20:40;;;;;;;9.85;3.63;;;13.40;92.50;;;11.37;93.95;100655.16;5070983;28;20143;-88
2021/10/15 01:23:08;;;;;;;9.50;3.85;;;13.30;92.30;;;11.35;93.52;100651.78;5089207;28;20093;-88
2021/10/15 01:25:37;;;;;;;7.75;3.40;;;13.40;92.40;;;11.34;93.69;100650.91;5089366;28;20044;-88
2021/10/15 01:28:05;;;;;;;6.38;3.35;;;13.40;92.30;;;11.30;93.60;100644.16;5084763;28;20043;-88
2021/10/15 01:30:32;;;;;;;9.68;3.45;;;13.30;92.40;;;11.29;93.53;100638.88;5032209;28;20498;-88
2021/10/15 01:33:00;;;;;;;10.95;3.53;;;13.30;92.20;;;11.29;93.43;100642.47;5031280;28;20040;-88
2021/10/15 01:35:27;;;;;;;9.38;3.42;;;13.40;92.30;;;11.24;93.54;100634.00;5048979;28;20041;-89
2021/10/15 01:37:56;;;;;;;7.93;3.90;;;13.30;92.10;;;11.24;93.33;100636.72;5048615;28;20059;-88
2021/10/15 01:40:23;;;;;;;9.27;3.67;;;13.30;92.10;;;11.27;92.98;100636.38;5048766;28;20567;-88
2021/10/15 01:42:56;;;;;;;12.70;4.03;;;13.30;92.20;;;11.28;93.34;100635.31;5052349;28;20766;-88
2021/10/15 01:45:25;;;;;;;8.10;3.65;;;13.30;92.00;;;11.23;93.22;100629.59;5050659;28;20097;-88
2021/10/15 01:47:52;;;;;;;6.40;3.47;;;13.30;92.20;;;11.20;93.98;100635.41;5068427;28;20048;-88
2021/10/15 01:50:20;;;;;;;12.27;4.30;;;13.30;92.10;;;11.20;93.86;100632.69;5068676;28;20443;-88
2021/10/15 01:52:48;;;;;;;11.02;4.10;;;13.30;91.90;;;11.18;93.18;100629.31;5050576;28;20476;-89
2021/10/15 01:55:17;;;;;;;9.68;4.18;;;13.30;92.10;;;11.09;93.31;100624.97;5050523;28;20171;-88
2021/10/15 01:57:44;;;;;;;9.73;3.78;;;13.30;92.00;;;11.08;93.40;100623.25;5068121;28;20489;-88
2021/10/15 02:00:14;;;;;;;11.05;3.80;;;13.20;91.80;;;11.04;93.75;100621.94;5050431;28;20057;-88
2021/10/15 02:02:43;;;;;;;11.87;4.37;;;13.20;92.10;;;11.02;93.37;100615.84;5068696;28;20048;-88
2021/10/15 02:05:14;;;;;;;12.07;4.18;;;13.20;92.10;;;11.04;94.46;100613.78;5068739;28;20314;-88
2021/10/15 02:07:42;;;;;;;9.77;3.83;;;13.20;92.00;;;11.07;93.85;100610.69;5082156;28;20048;-88
2021/10/15 02:10:12;;;;;;;9.80;3.90;;;13.20;91.60;;;11.08;93.28;100607.78;5088693;28;20122;-89
2021/10/15 02:12:41;;;;;;;12.90;3.90;;;13.20;92.00;;;11.05;93.80;100608.16;5070414;28;20466;-88
2021/10/15 02:15:11;;;;;;;10.38;4.40;;;13.20;92.00;;;10.93;94.61;100607.75;5088644;28;20078;-88
2021/10/15 02:17:39;;;;;;;10.65;4.30;;;13.20;92.10;;;10.97;94.72;100594.63;5088190;28;20059;-88
2021/10/15 02:20:09;;;;;;;9.90;4.03;;;13.10;92.00;;;10.93;94.19;100605.03;5088512;28;20068;-88
2021/10/15 02:22:37;;;;;;;15.55;4.10;;;13.10;92.20;;;10.90;94.99;100599.94;5070112;28;20060;-88
2021/10/15 02:25:06;;;;;;;9.07;4.10;;;13.10;92.10;;;10.80;95.48;100599.38;5070284;28;20101;-88
2021/10/15 02:27:34;;;;;;;12.43;4.07;;;13.10;92.20;;;10.79;95.10;100592.22;5069800;28;20044;-88
2021/10/15 02:30:05;;;;;;;9.73;4.15;;;13.10;92.10;;;10.79;95.91;100586.78;5070235;28;20048;-89
2021/10/15 02:32:33;;;;;;;8.57;3.92;;;13.10;92.20;;;10.80;95.50;100580.31;5070128;28;20052;-88
2021/10/15 02:35:00;;;;;;;9.95;4.25;;;13.00;92.20;;;10.78;95.15;100578.81;5088312;28;20106;-89
2021/10/15 02:37:28;;;;;;;12.85;4.53;;;13.10;92.30;;;10.77;95.76;100577.94;5069805;28;20163;-88
2021/10/15 02:39:55;;;;;;;14.23;5.20;;;13.00;92.30;;;10.82;94.83;100570.09;5088301;28;20032;-89
2021/10/15 02:42:22;;;;;;;10.35;4.15;;;12.90;92.10;;;10.86;94.99;100567.84;5069737;28;20101;-88
2021/10/15 02:44:49;;;;;;;11.10;4.10;;;12.90;92.60;;;10.80;94.70;100560.41;5068162;28;20132;-88
2021/10/15 02:47:18;;;;;;;8.30;4.22;;;13.00;92.60;;;10.81;95.55;100557.47;5050025;28;20147;-88
2021/10/15 02:49:46;;;;;;;11.00;4.43;;;13.00;92.70;;;10.80;95.59;100561.25;5067755;28;20094;-89
2021/10/15 02:52:13;;;;;;;11.75;4.72;;;13.00;92.70;;;10.80;95.27;100558.53;5068016;28;20043;-89
2021/10/15 02:54:40;;;;;;;11.77;4.15;;;13.00;92.70;;;10.84;96.06;100545.41;5052132;28;20076;-88
2021/10/15 02:57:07;;;;;;;11.77;4.07;;;13.00;92.70;;;10.85;95.23;100547.94;5053763;28;20048;-89
2021/10/15 02:59:35;;;;;;;9.18;4.50;;;13.00;92.80;;;10.82;96.04;100551.03;5070224;28;20048;-88
2021/10/15 03:02:02;;;;;;;10.30;4.22;;;13.00;92.70;;;10.83;95.83;100555.41;5070929;28;20046;-89
2021/10/15 03:04:31;;;;;;;11.98;4.70;;;13.00;92.60;;;10.81;95.48;100535.72;5053432;28;20056;-89
2021/10/15 06:32:09;;;;;;;15.50;6.25;;;12.90;95.20;;;10.88;100.00;100429.63;5072012;28;20500;-92
2021/10/15 06:34:39;;;;;;;11.18;5.50;;;12.90;95.20;;;10.87;100.00;100420.63;5055347;28;20505;-94
2021/10/15 06:37:06;;;;;;;17.17;5.70;;;12.90;95.20;;;10.87;100.00;100430.66;5073137;28;20043;-94
2021/10/15 06:39:34;;;;;;;15.55;6.00;;;12.90;95.20;;;10.86;100.00;100429.81;5059856;28;20485;-91
2021/10/15 06:42:01;;;;;;;13.82;6.65;;;12.90;95.20;;;10.89;100.00;100429.47;5034555;28;20072;-90
2021/10/15 06:44:29;;;;;;;11.02;5.90;;;13.00;95.40;;;10.99;100.00;100428.34;5034856;28;20072;-92
2021/10/15 07:11:08;;;;;;;14.43;6.13;;;13.10;96.00;;;11.15;100.00;100417.19;5073374;28;20052;-89
2021/10/15 07:13:37;;;;;;;12.60;5.93;;;13.10;96.00;;;11.23;100.00;100417.13;5055902;28;20075;-90
2021/10/15 07:16:05;;;;;;;17.02;5.47;;;13.10;96.20;;;11.25;100.00;100417.75;5072440;28;20113;-92
2021/10/15 07:26:59;;;;;;;12.63;5.88;;;13.20;96.20;;;11.31;100.00;100430.63;4924556;29;20055;-88
2021/10/15 10:01:19;;;;;;;18.35;7.35;;;13.80;99.90;;;12.24;100.00;100601.75;5005890;28;20060;-90
2021/10/15 10:03:47;;;;;;;12.00;5.40;;;13.90;99.90;;;12.27;100.00;100606.84;5009555;28;20092;-91
2021/10/15 10:06:14;;;;;;;9.05;5.32;;;13.90;99.90;;;12.36;100.00;100621.22;5010063;28;20045;-91
2021/10/15 10:08:43;;;;;;;7.82;4.13;;;13.90;99.90;;;12.41;100.00;100626.94;5009640;28;20073;-93
2021/10/15 10:11:10;;;;;;;5.75;3.53;;;13.90;99.90;;;12.40;100.00;100626.09;4991823;28;20050;-91
2021/10/15 10:13:39;;;;;;;7.07;3.10;;;14.00;99.90;;;12.44;100.00;100629.28;5009049;28;20038;-89
2021/10/15 10:16:10;;;;;;;6.68;2.88;;;14.00;99.90;;;12.40;100.00;100638.91;4989745;28;20057;-90
2021/10/15 10:18:43;;;;;;;3.88;2.00;;;14.00;99.90;;;12.46;100.00;100643.56;5008587;28;20061;-89
2021/10/15 10:21:17;;;;;;;5.97;2.20;;;13.90;99.50;;;12.47;100.00;100639.78;5008700;28;20069;-89
2021/10/15 10:23:52;;;;;;;4.78;1.80;;;13.90;99.90;;;12.40;100.00;100647.09;5008701;28;20061;-89
2021/10/15 10:26:21;;;;;;;8.35;1.80;;;13.90;99.90;;;12.43;100.00;100639.34;5007109;28;20168;-89
2021/10/15 10:29:01;;;;;;;5.20;1.60;;;14.00;99.90;;;12.47;100.00;100650.72;5008520;28;20050;-90
2021/10/15 10:31:28;;;;;;;6.57;1.50;;;14.00;99.90;;;12.43;100.00;100655.75;5007776;28;20111;-90
2021/10/15 10:34:00;;;;;;;5.07;1.40;;;13.90;99.10;;;12.49;100.00;100663.16;5008683;28;20042;-90
2021/10/15 10:36:28;;;;;;;;;;;13.90;99.90;;;12.48;100.00;100658.72;5008763;28;20470;-90
2021/10/15 10:38:56;;;;;;;3.60;1.33;;;14.00;99.90;;;12.56;100.00;100659.63;4990569;28;20378;-90
2021/10/15 10:41:28;;;;;;;2.97;1.10;;;14.10;99.90;;;12.57;100.00;100662.16;4990610;28;20115;-89
2021/10/15 10:44:14;;;;;;;4.00;1.20;;;14.10;99.90;;;12.73;100.00;100666.53;5007986;28;20128;-89
2021/10/15 10:46:43;;;;;;;4.57;1.25;;;14.20;99.90;;;12.78;100.00;100672.25;5007776;28;20041;-90
2021/10/15 10:49:21;;;;;;;2.80;1.10;;;14.10;99.60;;;12.82;100.00;100669.97;5007105;28;20057;-89
2021/10/15 10:52:20;;;;;;;2.60;1.23;;;14.20;99.90;;;12.86;100.00;100677.56;5008814;28;20057;-91
2021/10/15 10:54:49;;;;;;;3.85;1.10;;;14.20;99.90;;;12.96;100.00;100681.88;4990133;28;20084;-89
2021/10/15 10:57:26;;;;;;;5.43;1.40;;;14.20;99.90;;;13.07;100.00;100686.81;5008835;28;20128;-94
2021/10/15 11:00:19;;;;;;;2.33;0.95;;;14.30;99.90;;;13.17;100.00;100690.03;5007179;28;20045;-85
2021/10/15 11:02:49;;;;;;;3.53;1.23;;;14.30;99.90;;;13.14;100.00;100679.50;4989284;28;20038;-90
2021/10/15 13:01:07;;;;;;;8.43;1.67;;;14.30;90.00;;;12.90;88.76;100736.22;5066683;28;20428;-87
2021/10/15 13:03:44;;;;;;;8.27;1.80;;;14.40;90.80;;;13.03;86.02;100738.25;5037156;28;20500;-86
2021/10/15 13:06:11;;;;;;;7.82;1.65;;;14.40;89.30;;;13.03;86.12;100741.00;5062753;28;20140;-86
2021/10/15 13:08:39;;;;;;;8.75;1.88;;;14.40;88.20;;;12.96;83.36;100752.91;5057710;28;20055;-88
2021/10/15 13:11:08;;;;;;;9.73;1.90;;;14.40;87.20;;;12.90;84.21;100743.59;5037649;28;20041;-86
2021/10/15 13:13:35;;;;;;;6.93;1.48;;;14.30;87.70;;;12.82;84.21;100747.28;5033875;28;20045;-90
2021/10/15 13:16:03;;;;;;;8.48;1.58;;;14.30;88.90;;;12.78;85.57;100746.00;5043352;28;20045;-89
2021/10/15 13:18:31;;;;;;;9.93;1.40;;;14.40;88.90;;;12.76;85.81;100749.97;5014958;28;20060;-88
2021/10/15 13:20:58;;;;;;;8.93;1.63;;;14.40;89.00;;;12.74;86.50;100747.41;5045772;28;20151;-89
2021/10/15 13:23:26;;;;;;;7.72;1.50;;;14.40;89.00;;;12.80;88.39;100748.53;5052121;28;20559;-87
2021/10/15 13:25:54;;;;;;;6.50;1.45;;;14.40;89.50;;;12.87;87.39;100750.28;5045274;28;20435;-89
2021/10/15 13:28:21;;;;;;;4.65;1.27;;;14.40;88.50;;;13.01;85.16;100747.69;5068874;28;20540;-89
2021/10/15 13:30:49;;;;;;;11.25;1.30;;;14.40;87.60;;;13.08;85.92;100756.81;5058475;28;20037;-89
2021/10/15 13:33:18;;;;;;;7.43;1.50;;;14.50;89.10;;;13.09;86.27;100744.84;5028359;28;20132;-89
2021/10/15 13:35:48;;;;;;;6.22;1.33;;;14.50;89.30;;;13.12;87.11;100749.91;5053007;28;20056;-89
2021/10/15 13:38:18;;;;;;;7.22;1.50;;;14.60;89.20;;;13.08;88.69;100751.34;5048948;28;20056;-89
2021/10/15 13:40:55;;;;;;;7.95;1.50;;;14.60;90.00;;;13.03;88.14;100759.28;5034894;28;20672;-88
2021/10/15 13:43:29;;;;;;;3.80;1.20;;;14.60;89.60;;;12.90;88.81;100755.34;5035953;28;20077;-89
2021/10/15 13:46:04;;;;;;;6.85;1.42;;;14.60;89.50;;;12.84;85.57;100760.75;5047824;28;20067;-86
2021/10/15 13:51:21;;;;;;;4.90;1.52;;;14.60;89.10;;;12.66;85.07;100767.50;5046108;28;20122;-89
2021/10/15 13:53:48;;;;;;;10.23;1.80;;;14.50;87.20;;;12.66;86.02;100772.09;5048462;28;20064;-91
2021/10/15 13:56:17;;;;;;;11.02;1.60;;;14.50;87.20;;;12.56;86.20;100766.94;5039775;28;20456;-91
2021/10/15 13:58:48;;;;;;;8.70;1.75;;;14.40;88.20;;;12.50;86.23;100771.28;5050910;28;20067;-91
2021/10/15 14:01:17;;;;;;;5.90;1.30;;;14.40;88.30;;;12.47;87.75;100782.59;5068958;28;20068;-90
2021/10/15 14:06:39;;;;;;;8.98;1.85;;;14.40;88.70;;;12.45;88.38;100784.69;5048566;28;20052;-90
2021/10/15 14:09:06;;;;;;;7.95;1.33;;;14.40;89.00;;;12.41;89.62;100788.78;5030525;28;20135;-90
2021/10/15 14:11:34;;;;;;;6.03;1.48;;;14.40;89.00;;;12.41;88.79;100780.59;5048792;28;20064;-90
2021/10/15 14:14:01;;;;;;;7.78;1.30;;;14.40;89.30;;;12.39;84.79;100779.97;5030256;28;20053;-90
2021/10/15 14:16:34;;;;;;;8.73;1.48;;;14.30;88.00;;;12.38;81.95;100785.63;5042044;28;20094;-94
2021/10/15 14:19:02;;;;;;;8.48;1.40;;;14.30;85.00;;;12.38;81.11;100788.38;5050181;28;20497;-88
2021/10/15 14:21:29;;;;;;;9.23;1.70;;;14.20;86.10;;;12.33;83.49;100786.19;5040942;28;20148;-87
2021/10/15 14:23:58;;;;;;;5.68;1.42;;;14.20;87.00;;;12.32;83.20;100789.97;5041900;28;20460;-86
2021/10/15 14:26:25;;;;;;;6.35;1.15;;;14.20;86.50;;;12.29;82.99;100801.25;5057048;28;20045;-87
2021/10/15 14:28:52;;;;;;;9.30;1.90;;;14.20;87.00;;;12.28;84.00;100794.94;5067987;28;20068;-87
2021/10/15 14:31:20;;;;;;;8.48;1.70;;;14.20;87.10;;;12.29;83.54;100793.91;5068514;28;20130;-86
2021/10/15 14:33:47;;;;;;;6.78;1.33;;;14.20;85.90;;;12.30;83.92;100795.59;5054822;28;20072;-86
2021/10/15 14:36:14;;;;;;;8.00;1.45;;;14.20;86.10;;;12.28;85.16;100794.06;5055739;28;20124;-87
2021/10/15 14:38:42;;;;;;;7.35;1.27;;;14.10;86.60;;;12.31;84.76;100794.56;5045304;28;20152;-86
2021/10/15 14:41:12;;;;;;;4.90;1.20;;;14.10;86.60;;;12.25;85.63;100797.22;5048502;28;20563;-87
2021/10/15 14:43:39;;;;;;;13.35;1.92;;;14.20;87.10;;;12.22;84.50;100789.38;5029271;28;20135;-87
2021/10/15 14:46:07;;;;;;;9.07;1.75;;;14.20;87.00;;;12.15;86.46;100794.75;5054343;28;20041;-87
2021/10/15 14:48:35;;;;;;;8.63;1.70;;;14.10;87.10;;;12.13;87.18;100797.69;5016338;28;20111;-89
2021/10/15 14:51:02;;;;;;;9.73;1.88;;;14.10;86.90;;;12.10;87.03;100802.66;5031595;28;20091;-84
2021/10/15 14:53:29;;;;;;;11.43;1.80;;;14.10;87.40;;;12.06;87.39;100796.72;5032440;28;20068;-86
2021/10/15 14:55:57;;;;;;;7.07;1.42;;;14.10;87.40;;;11.99;88.72;100801.22;5053082;28;20119;-85
2021/10/15 14:58:25;;;;;;;8.73;1.70;;;14.10;87.90;;;11.95;89.13;100799.91;5071609;28;20131;-86
2021/10/15 15:00:55;;;;;;;7.88;1.65;;;14.10;88.00;;;11.88;90.38;100805.25;5071760;28;20125;-86
2021/10/15 15:03:22;;;;;;;7.97;1.85;;;14.00;88.30;;;11.89;90.15;100806.09;5064327;28;20123;-86
2021/10/15 15:05:50;;;;;;;7.38;1.50;;;14.00;88.40;;;11.82;90.04;100806.00;5052875;28;20504;-86
2021/10/15 15:08:17;;;;;;;8.85;1.45;;;14.00;88.70;;;11.81;90.67;100806.19;5052549;28;20041;-85
2021/10/15 15:10:46;;;;;;;7.78;1.65;;;14.00;88.50;;;11.84;89.68;100800.34;5051526;28;20091;-86
2021/10/15 15:13:13;;;;;;;9.23;2.25;;;13.90;88.50;;;11.78;90.32;100798.38;5050501;28;20594;-85
2021/10/15 15:15:42;;;;;;;7.65;1.73;;;13.90;88.80;;;11.71;91.00;100799.09;5054685;28;20101;-85
2021/10/15 15:18:09;;;;;;;9.65;1.65;;;13.90;88.80;;;11.65;91.27;100791.69;5053191;28;20518;-88
2021/10/15 15:20:38;;;;;;;5.40;1.17;;;13.90;88.90;;;11.62;91.98;100794.75;5053552;28;20049;-88
2021/10/15 15:23:06;;;;;;;9.93;1.45;;;13.80;89.00;;;11.57;92.03;100797.19;5060284;28;20044;-89
2021/10/15 15:25:34;;;;;;;10.65;1.75;;;13.80;89.10;;;11.58;91.48;100804.34;5024320;28;20144;-89
2021/10/15 15:28:01;;;;;;;6.30;1.33;;;13.80;89.10;;;11.56;92.20;100806.41;5053124;28;20425;-88
2021/10/15 15:30:28;;;;;;;10.75;1.80;;;13.80;89.40;;;11.53;92.74;100798.59;5053191;28;20072;-89
2021/10/15 15:32:57;;;;;;;7.63;1.55;;;13.70;89.50;;;11.47;92.65;100805.63;5048950;28;20145;-89
2021/10/15 15:35:24;;;;;;;11.20;2.28;;;13.70;89.70;;;11.48;92.88;100806.47;5051591;28;20045;-89
2021/10/15 15:37:51;;;;;;;6.43;1.70;;;13.60;89.50;;;11.46;92.79;100816.69;5053161;28;20279;-89
2021/10/15 15:40:19;;;;;;;6.90;1.42;;;13.60;89.60;;;11.46;92.14;100813.97;5053369;28;20405;-89
2021/10/15 15:42:47;;;;;;;9.10;1.98;;;13.60;90.00;;;11.42;91.32;100818.09;5043122;28;20107;-89
2021/10/15 15:45:16;;;;;;;7.28;1.38;;;13.60;89.40;;;11.47;91.75;100823.84;5043920;28;20048;-89
2021/10/15 15:47:45;;;;;;;12.07;2.20;;;13.60;89.90;;;11.49;92.20;100816.34;5052718;28;20110;-89
2021/10/15 15:50:19;;;;;;;10.05;1.67;;;13.50;90.00;;;11.46;91.63;100817.56;5048417;28;20432;-89
2021/10/15 15:52:49;;;;;;;9.02;1.60;;;13.50;89.50;;;11.44;91.62;100827.81;5032177;28;20052;-89
2021/10/15 15:55:18;;;;;;;5.38;1.60;;;13.60;90.10;;;11.41;91.75;100817.25;5050410;28;20099;-89
2021/10/15 15:57:46;;;;;;;7.55;1.35;;;13.50;90.10;;;11.38;91.55;100820.34;5052884;28;20143;-89
2021/10/15 16:00:15;;;;;;;4.65;1.35;;;13.50;90.00;;;11.34;91.69;100819.84;5071043;28;20044;-88
2021/10/15 16:02:43;;;;;;;7.60;1.60;;;13.50;90.00;;;11.25;92.70;100820.97;5067742;28;20132;-88
2021/10/15 16:05:13;;;;;;;5.50;1.50;;;13.50;90.00;;;11.28;91.26;100830.66;5031196;28;20050;-88
2021/10/15 16:07:41;;;;;;;8.52;1.70;;;13.40;89.50;;;11.19;91.33;100840.75;5056775;28;20122;-89
2021/10/15 16:10:11;;;;;;;11.95;2.20;;;13.40;89.80;;;11.16;91.74;100835.66;5032605;28;20087;-89
2021/10/15 16:12:38;;;;;;;8.45;1.65;;;13.40;89.90;;;11.09;92.88;100848.31;5031955;28;20053;-89
2021/10/15 16:15:07;;;;;;;6.63;1.42;;;13.30;90.00;;;11.01;93.04;100856.53;5030952;28;20117;-88
2021/10/15 16:17:35;;;;;;;10.95;2.00;;;13.30;90.10;;;10.98;93.47;100851.44;5050420;28;20041;-88
2021/10/15 16:20:02;;;;;;;9.07;1.83;;;13.30;90.20;;;10.93;93.86;100857.44;5032226;28;20560;-89
2021/10/15 16:22:31;;;;;;;10.13;1.70;;;13.30;90.20;;;10.86;94.34;100857.28;5050504;28;20119;-89
2021/10/15 16:24:58;;;;;;;10.50;1.95;;;13.20;90.20;;;10.77;95.04;100863.78;5047181;28;20111;-88
2021/10/15 16:27:26;;;;;;;8.80;1.98;;;13.20;90.40;;;10.67;96.04;100874.06;5041384;28;20045;-89
2021/10/15 16:29:54;;;;;;;9.27;1.80;;;13.10;90.70;;;10.74;93.34;100872.34;5022274;28;20036;-88
2021/10/15 16:32:21;;;;;;;7.32;1.70;;;13.00;90.20;;;10.68;94.80;100873.88;5047487;28;20095;-95
2021/10/15 16:34:48;;;;;;;8.23;1.95;;;13.00;90.60;;;10.68;95.25;100886.63;5047638;28;20614;-84
2021/10/15 16:37:16;;;;;;;10.13;2.38;;;13.00;90.80;;;10.64;95.08;100896.19;5049217;28;20127;-85
2021/10/15 16:39:45;;;;;;;8.48;2.25;;;13.00;90.60;;;10.59;94.93;100895.88;5056779;28;20102;-84
2021/10/15 16:42:13;;;;;;;7.60;1.80;;;13.00;90.80;;;10.55;95.77;100896.22;5049884;28;20068;-84
2021/10/15 16:44:40;;;;;;;11.57;2.13;;;12.90;91.00;;;10.57;96.28;100899.59;5018216;28;20459;-84
2021/10/15 16:47:07;;;;;;;13.60;2.58;;;12.90;91.20;;;10.50;95.45;100911.38;5039039;28;20055;-92
2021/10/15 16:49:35;;;;;;;10.60;2.00;;;12.90;91.00;;;10.48;96.26;100916.13;5038507;28;20452;-86
2021/10/15 16:52:05;;;;;;;15.05;2.22;;;12.90;91.10;;;10.41;96.27;100920.56;5015944;28;20064;-88
2021/10/15 16:54:32;;;;;;;8.18;2.38;;;12.80;91.20;;;10.36;96.32;100921.94;5019773;28;20060;-89
2021/10/15 16:57:01;;;;;;;14.98;2.55;;;12.80;91.30;;;10.36;96.81;100932.81;5037916;28;20099;-83
2021/10/15 16:59:29;;;;;;;9.27;2.28;;;12.70;91.30;;;10.34;96.32;100931.31;5030637;28;20119;-84
2021/10/15 17:01:58;;;;;;;13.50;2.35;;;12.70;91.40;;;10.25;97.05;100943.19;5045593;28;20119;-86
2021/10/15 17:04:25;;;;;;;7.68;1.98;;;12.70;91.40;;;10.12;97.38;100939.09;5033432;28;20043;-86
2021/10/15 17:06:53;;;;;;;13.70;2.92;;;12.60;91.40;;;10.03;97.73;100945.56;5024491;28;20073;-85
2021/10/15 17:09:20;;;;;;;9.90;2.10;;;12.60;91.40;;;9.98;98.70;100947.97;5054087;28;20528;-87
2021/10/15 17:11:47;;;;;;;12.57;2.00;;;12.50;91.70;;;9.89;98.80;100955.25;5044829;28;20072;-86
2021/10/15 17:14:16;;;;;;;9.23;2.58;;;12.40;91.90;;;9.86;98.54;100954.75;5034486;28;20037;-88
2021/10/15 17:16:43;;;;;;;9.57;2.13;;;12.40;92.00;;;9.87;98.88;100961.91;5013862;28;20136;-87
2021/10/15 17:19:11;;;;;;;15.88;2.58;;;12.30;92.10;;;9.89;98.94;100968.84;5029057;28;20045;-87
2021/10/15 17:21:38;;;;;;;9.02;2.80;;;12.30;92.20;;;9.89;98.84;100971.56;5044192;28;20591;-88
2021/10/15 17:24:07;;;;;;;9.68;2.03;;;12.30;92.40;;;9.88;99.08;100975.31;5013118;28;20459;-88
2021/10/15 17:26:35;;;;;;;11.25;2.25;;;12.30;92.50;;;9.88;99.25;100980.75;5013818;28;20047;-88
2021/10/15 17:29:03;;;;;;;9.98;2.30;;;12.30;92.70;;;9.91;99.43;100974.97;5037762;28;20565;-89
2021/10/15 17:31:32;;;;;;;9.65;2.50;;;12.30;92.70;;;9.94;98.52;100981.97;5048568;28;20040;-87
2021/10/15 17:33:59;;;;;;;16.98;2.83;;;12.30;92.80;;;9.88;98.58;100979.88;5030348;28;20039;-87
2021/10/15 17:36:27;;;;;;;8.80;2.20;;;12.20;92.60;;;9.85;98.46;100983.81;5041196;28;20120;-86
2021/10/15 17:38:54;;;;;;;14.73;2.58;;;12.20;92.60;;;9.83;98.52;100998.59;5042199;28;20163;-88
2021/10/15 17:41:21;;;;;;;12.13;2.78;;;12.20;92.70;;;9.76;98.82;100999.25;5068932;28;20064;-87
2021/10/15 17:43:49;;;;;;;11.85;3.30;;;12.10;92.80;;;9.72;99.11;101002.47;5068956;28;20137;-88
2021/10/15 17:46:16;;;;;;;23.10;6.95;;;12.10;92.80;;;9.66;99.51;101000.44;5047043;28;20152;-87
2021/10/15 17:48:45;;;;;;;17.48;8.88;;;12.10;92.90;;;9.67;99.58;101008.44;5028651;28;20142;-87
2021/10/15 17:51:12;;;;;;;24.45;12.75;;;12.10;93.00;;;9.57;99.43;101005.81;5029159;28;20073;-87
2021/10/15 17:53:39;;;;;;;25.38;13.80;;;12.10;93.00;;;9.54;100.00;101005.34;5036751;28;20660;-85
2021/10/15 17:56:07;;;;;;;25.90;13.77;;;12.10;93.10;;;9.51;100.00;101005.66;5047836;28;20065;-86
2021/10/15 17:58:34;;;;;;;26.40;13.52;;;12.00;93.10;;;9.49;100.00;101013.97;5046468;28;20156;-86
2021/10/15 18:01:01;;;;;;;28.85;13.93;;;12.00;93.10;;;9.45;100.00;101011.75;5046304;28;20045;-86
2021/10/15 18:03:28;;;;;;;22.60;11.68;;;11.90;93.20;;;9.45;100.00;101017.19;5046208;28;20045;-85
2021/10/15 18:05:57;;;;;;;20.45;8.90;;;11.90;93.20;;;9.38;100.00;101020.53;5028266;28;20045;-87
2021/10/15 18:08:24;;;;;;;20.92;8.52;;;11.90;93.20;;;9.32;100.00;101021.19;5026615;28;20077;-86
2021/10/15 18:10:52;;;;;;;24.42;8.10;;;11.80;93.30;;;9.28;100.00;101024.44;5026220;28;20129;-85
2021/10/15 18:13:20;;;;;;;15.38;6.65;;;11.70;93.30;;;9.25;100.00;101014.72;5026129;28;20125;-87
2021/10/15 18:15:47;;;;;;;22.75;6.38;;;11.70;93.40;;;9.25;100.00;101012.00;5026506;28;20042;-86
2021/10/15 18:18:14;;;;;;;18.83;4.80;;;11.70;93.50;;;9.20;100.00;101019.81;5043368;28;20074;-85
2021/10/15 18:20:42;;;;;;;13.52;4.60;;;11.70;93.50;;;9.16;100.00;101019.28;5046143;28;20037;-85
2021/10/15 18:23:11;;;;;;;10.63;4.22;;;11.60;93.50;;;9.13;100.00;101013.31;5045949;28;20116;-86
2021/10/15 18:25:38;;;;;;;12.73;4.38;;;11.60;93.60;;;9.15;100.00;101017.56;5045563;28;20087;-87
2021/10/15 18:28:05;;;;;;;12.13;3.90;;;11.60;93.50;;;9.05;100.00;101021.44;5029500;28;20124;-88
2021/10/15 18:30:33;;;;;;;17.13;4.85;;;11.50;93.50;;;9.00;100.00;101014.63;5026362;28;20073;-85
2021/10/15 18:33:00;;;;;;;16.92;5.30;;;11.50;93.50;;;8.98;100.00;101015.78;5026250;28;20129;-86
2021/10/15 18:35:27;;;;;;;15.57;5.78;;;11.50;93.80;;;8.95;100.00;101021.56;5026278;28;20037;-85
2021/10/15 18:37:56;;;;;;;17.05;6.07;;;11.50;93.80;;;8.88;100.00;101015.91;5039054;28;20076;-82
2021/10/15 18:40:26;;;;;;;21.80;8.02;;;11.40;93.70;;;8.90;100.00;101022.03;5045907;28;20520;-85
2021/10/15 18:42:53;;;;;;;18.48;7.57;;;11.40;93.80;;;8.91;100.00;101023.75;5045989;28;20041;-82
2021/10/15 18:45:21;;;;;;;22.55;8.93;;;11.40;93.60;;;8.87;100.00;101022.38;5046114;28;20539;-83
2021/10/15 18:47:48;;;;;;;23.48;9.55;;;11.40;93.80;;;8.77;100.00;101033.31;5032155;28;20171;-83